Koosah.INFO

KSEA Weather Observatons

This table shows observations taken by aircraft in the Seattle, WA, US area since 2019-01-20T18:19:13-0800. By default, it is sorted by time observed in ascending order. Click on a column heading to sort by that column instead. Click again on the same column heading to sort in descending order.

Show observations taken in the last:

Return to main page.

Time Observed Time Received Altitude (ft) Latitude Longitude Temperature (˚C) Wind Direction Wind speed (kn) Frequency (MHz) Source
2019-01-20T19:46:00-0800 2019-01-20T19:46:34-0800 30700 47.513000000000005 -122.348 -58.0 251 17 131.55 .C-GBIJ
2019-01-20T19:51:00-0800 2019-01-20T19:52:35-0800 9462 47.6083 -122.206 -11.2 336 16 130.025 .N320AS
2019-01-20T19:56:00-0800 2019-01-20T19:57:33-0800 20436 47.5579 -121.4248 -34.0 322 30 130.025 .N320AS
2019-01-20T19:55:00-0800 2019-01-20T19:57:33-0800 19797 47.5589 -121.4883 -32.2 323 28 130.025 .N320AS
2019-01-20T19:54:00-0800 2019-01-20T19:54:24-0800 16560 47.5776 -121.7592 -24.7 358 28 130.025 .N320AS
2019-01-20T19:53:00-0800 2019-01-20T19:54:24-0800 15599 47.5823 -121.8136 -23.2 0 22 130.025 .N320AS
2019-01-20T19:53:00-0800 2019-01-20T19:54:24-0800 14684 47.5867 -121.8677 -21.7 350 19 130.025 .N320AS
2019-01-20T19:53:00-0800 2019-01-20T19:54:17-0800 13727 47.5912 -121.9212 -19.0 (missing) (missing) 130.025 .N320AS
2019-01-20T19:52:00-0800 2019-01-20T19:54:17-0800 12963 47.5955 -121.9739 -18.0 344 17 130.025 .N320AS
2019-01-20T19:52:00-0800 2019-01-20T19:54:17-0800 12674 47.5996 -122.0239 -17.5 341 20 130.025 .N320AS
2019-01-20T19:51:00-0800 2019-01-20T19:52:35-0800 10461 47.6085 -122.1667 -13.0 (missing) (missing) 130.025 .N320AS
2019-01-20T19:56:00-0800 2019-01-20T19:57:33-0800 21064 47.557 -121.3635 -35.0 (missing) (missing) 130.025 .N320AS
2019-01-20T19:50:00-0800 2019-01-20T19:52:35-0800 8528 47.608 -122.2441 -9.5 333 17 130.025 .N320AS
2019-01-20T19:47:00-0800 2019-01-20T19:47:33-0800 25203 47.03 -121.9321 -46.7 294 25 130.025 .N306AS
2019-01-20T19:46:00-0800 2019-01-20T19:47:33-0800 24402 47.0623 -121.9635 -44.7 294 26 130.025 .N306AS
2019-01-20T19:46:00-0800 2019-01-20T19:47:33-0800 23548 47.0942 -121.9951 -42.2 292 26 130.025 .N306AS
2019-01-20T19:46:00-0800 2019-01-20T19:47:27-0800 22623 47.1256 -122.0268 -40.0 (missing) (missing) 130.025 .N306AS
2019-01-20T19:45:00-0800 2019-01-20T19:47:27-0800 21665 47.1593 -122.0519 -37.2 311 26 130.025 .N306AS
2019-01-20T19:45:00-0800 2019-01-20T19:47:27-0800 20685 47.1957 -122.0635 -34.5 317 27 130.025 .N306AS
2019-01-20T20:02:00-0800 2019-01-20T20:03:08-0800 11599 47.4966 -122.4481 -15.0 336 13 130.025 .N551AS
2019-01-20T20:08:00-0800 2019-01-20T20:14:10-0800 27002 48.4867 -123.3138 -52.0 (missing) (missing) 130.025 .N618AS
2019-01-20T20:06:00-0800 2019-01-20T20:14:10-0800 27001 48.6653 -123.5462 -52.7 270 42 130.025 .N618AS
2019-01-20T20:04:00-0800 2019-01-20T20:14:10-0800 26846 48.7647 -123.821 -52.7 262 35 130.025 .N618AS
2019-01-20T20:04:00-0800 2019-01-20T20:04:50-0800 14808 47.3321 -122.3617 -22.0 7 13 130.025 .N551AS
2019-01-20T20:04:00-0800 2019-01-20T20:04:50-0800 13885 47.366 -122.3799 -20.0 354 15 130.025 .N551AS
2019-01-20T20:03:00-0800 2019-01-20T20:04:50-0800 13089 47.3993 -122.3978 -18.5 345 16 130.025 .N551AS
2019-01-20T20:03:00-0800 2019-01-20T20:04:44-0800 12401 47.432 -122.4153 -17.0 (missing) (missing) 130.025 .N551AS
2019-01-20T20:03:00-0800 2019-01-20T20:04:44-0800 12114 47.4633 -122.4314 -16.5 344 15 130.025 .N551AS
2019-01-20T20:02:00-0800 2019-01-20T20:04:44-0800 11696 47.4925 -122.446 -15.2 336 13 130.025 .N551AS
2019-01-20T19:45:00-0800 2019-01-20T19:46:02-0800 20217 47.3529 -121.4638 -33.0 317 30 130.025 .N323AS
2019-01-20T20:02:00-0800 2019-01-20T20:03:08-0800 10960 47.5249 -122.4582 -13.5 331 12 130.025 .N551AS
2019-01-20T20:02:00-0800 2019-01-20T20:03:08-0800 10179 47.5524 -122.4621 -11.7 343 13 130.025 .N551AS
2019-01-20T19:59:00-0800 2019-01-20T19:59:43-0800 2219 47.4913 -122.3082 1.2 11 6 130.025 .N551AS
2019-01-20T19:58:00-0800 2019-01-20T19:59:43-0800 2092 47.4861 -122.3082 1.5 10 7 130.025 .N551AS
2019-01-20T19:58:00-0800 2019-01-20T19:59:43-0800 1958 47.4811 -122.308 1.7 11 7 130.025 .N551AS
2019-01-20T19:58:00-0800 2019-01-20T19:59:36-0800 1858 47.4763 -122.308 2.0 (missing) (missing) 130.025 .N551AS
2019-01-20T19:58:00-0800 2019-01-20T19:59:36-0800 1735 47.4719 -122.3082 2.5 12 8 130.025 .N551AS
2019-01-20T19:58:00-0800 2019-01-20T19:59:36-0800 1529 47.4674 -122.3082 3.0 12 9 130.025 .N551AS
2019-01-20T19:02:00-0800 2019-01-20T19:04:02-0800 5755 47.5778 -122.3325 -5.2 349 16 130.025 .N611AS
2019-01-20T19:06:00-0800 2019-01-20T19:07:17-0800 14974 47.6344 -122.7358 -22.7 21 13 130.025 .N611AS
2019-01-20T19:05:00-0800 2019-01-20T19:05:34-0800 11842 47.6267 -122.5852 -15.7 348 9 130.025 .N611AS
2019-01-20T19:04:00-0800 2019-01-20T19:05:34-0800 10923 47.6243 -122.5396 -14.0 347 6 130.025 .N611AS
2019-01-20T19:04:00-0800 2019-01-20T19:05:34-0800 10620 47.6221 -122.4968 -13.2 346 8 130.025 .N611AS
2019-01-20T19:04:00-0800 2019-01-20T19:05:28-0800 9812 47.6204 -122.4577 -11.0 (missing) (missing) 130.025 .N611AS
2019-01-20T19:03:00-0800 2019-01-20T19:05:28-0800 8884 47.6183 -122.4201 -10.5 7 15 130.025 .N611AS
2019-01-20T19:03:00-0800 2019-01-20T19:05:28-0800 7806 47.6132 -122.3842 -8.0 348 9 130.025 .N611AS
2019-01-20T19:03:00-0800 2019-01-20T19:04:02-0800 7655 47.6116 -122.3792 -7.5 343 9 130.025 .N611AS
2019-01-20T19:03:00-0800 2019-01-20T19:04:02-0800 6737 47.5962 -122.3525 -5.5 354 13 130.025 .N611AS
2019-01-20T19:06:00-0800 2019-01-20T19:07:17-0800 15989 47.637 -122.7859 -25.0 25 17 130.025 .N611AS
2019-01-20T19:02:00-0800 2019-01-20T19:03:55-0800 4799 47.5587 -122.3149 -4.0 (missing) (missing) 130.025 .N611AS
2019-01-20T19:02:00-0800 2019-01-20T19:03:55-0800 3773 47.5369 -122.3092 -2.5 356 7 130.025 .N611AS
2019-01-20T19:01:00-0800 2019-01-20T19:03:55-0800 3016 47.5153 -122.308 -1.0 21 5 130.025 .N611AS
2019-01-20T19:01:00-0800 2019-01-20T19:02:54-0800 2305 47.492 -122.308 0.7 23 6 130.025 .N611AS
2019-01-20T19:01:00-0800 2019-01-20T19:02:54-0800 2181 47.4866 -122.3082 1.2 23 7 130.025 .N611AS
2019-01-20T19:01:00-0800 2019-01-20T19:02:54-0800 2068 47.4815 -122.3082 1.5 30 6 130.025 .N611AS
2019-01-20T18:29:00-0800 2019-01-20T18:29:40-0800 3011 47.5213 -122.3089 -0.7 21 6 130.025 .N552AS
2019-01-20T18:29:00-0800 2019-01-20T18:29:40-0800 2816 47.5153 -122.3087 -0.2 26 6 130.025 .N552AS
2019-01-20T19:38:00-0800 2019-01-20T19:39:01-0800 5039 47.5744 -122.3092 -4.2 326 11 130.025 .N323AS
2019-01-20T19:45:00-0800 2019-01-20T19:46:02-0800 19465 47.3684 -121.5139 -30.7 324 26 130.025 .N323AS
2019-01-20T19:44:00-0800 2019-01-20T19:46:02-0800 18719 47.3836 -121.5632 -29.2 324 24 130.025 .N323AS
2019-01-20T19:41:00-0800 2019-01-20T19:42:22-0800 10113 47.5431 -122.0261 -11.0 (missing) (missing) 130.025 .N323AS
2019-01-20T19:40:00-0800 2019-01-20T19:42:22-0800 9279 47.5556 -122.0608 -10.0 343 15 130.025 .N323AS
2019-01-20T19:40:00-0800 2019-01-20T19:42:22-0800 8994 47.5685 -122.0951 -10.0 338 15 130.025 .N323AS
2019-01-20T19:39:00-0800 2019-01-20T19:41:02-0800 4390 47.5548 -122.3097 -3.0 (missing) (missing) 130.025 .N306AS
2019-01-20T19:39:00-0800 2019-01-20T19:41:02-0800 3890 47.5335 -122.3097 -2.5 306 9 130.025 .N306AS
2019-01-20T19:38:00-0800 2019-01-20T19:39:01-0800 6607 47.6138 -122.2797 -5.2 345 11 130.025 .N323AS
2019-01-20T19:38:00-0800 2019-01-20T19:39:01-0800 5628 47.5967 -122.3035 -5.2 338 7 130.025 .N323AS
2019-01-20T18:29:00-0800 2019-01-20T18:29:40-0800 2652 47.5093 -122.3085 0.0 21 7 130.025 .N552AS
2019-01-20T19:38:00-0800 2019-01-20T19:41:02-0800 2900 47.5139 -122.3092 -0.2 352 3 130.025 .N306AS
2019-01-20T19:35:00-0800 2019-01-20T19:36:23-0800 456 47.4514 -122.308 5.0 (missing) (missing) 130.025 .N323AS
2019-01-20T19:35:00-0800 2019-01-20T19:36:23-0800 368 47.447 -122.308 6.2 140 1 130.025 .N323AS
2019-01-20T19:35:00-0800 2019-01-20T19:36:23-0800 354 47.443 -122.308 6.5 338 0 130.025 .N323AS
2019-01-20T19:09:00-0800 2019-01-20T19:10:25-0800 23931 47.7726 -123.1059 -43.0 (missing) (missing) 130.025 .N611AS
2019-01-20T19:08:00-0800 2019-01-20T19:10:25-0800 23139 47.7479 -123.0693 -41.5 283 29 130.025 .N611AS
2019-01-20T19:08:00-0800 2019-01-20T19:10:25-0800 22284 47.7237 -123.0331 -39.2 289 28 130.025 .N611AS
2019-01-20T19:07:00-0800 2019-01-20T19:07:17-0800 17097 47.6396 -122.8367 -25.7 1 22 130.025 .N611AS